sensor_id;sensor_type;location;lat;lon;timestamp;pressure;altitude;pressure_sealevel;temperature;humidity
15568;BME280;7885;42.596;23.044;2023-07-28T00:00:05;93070.47;;;13.79;82.53
15568;BME280;7885;42.596;23.044;2023-07-28T00:02:33;93070.78;;;13.84;82.53
15568;BME280;7885;42.596;23.044;2023-07-28T00:05:00;93094.78;;;14.00;79.95
15568;BME280;7885;42.596;23.044;2023-07-28T00:07:26;93105.13;;;13.89;81.44
15568;BME280;7885;42.596;23.044;2023-07-28T00:09:53;93109.47;;;13.83;79.54
15568;BME280;7885;42.596;23.044;2023-07-28T00:12:20;93092.13;;;13.62;80.59
15568;BME280;7885;42.596;23.044;2023-07-28T00:14:57;93100.22;;;13.73;82.39
15568;BME280;7885;42.596;23.044;2023-07-28T00:17:26;93096.72;;;13.73;82.22
15568;BME280;7885;42.596;23.044;2023-07-28T00:19:53;93080.50;;;13.55;80.70
15568;BME280;7885;42.596;23.044;2023-07-28T00:22:20;93098.44;;;13.59;81.66
15568;BME280;7885;42.596;23.044;2023-07-28T00:24:47;93097.06;;;13.44;83.16
15568;BME280;7885;42.596;23.044;2023-07-28T00:27:13;93088.47;;;13.42;85.71
15568;BME280;7885;42.596;23.044;2023-07-28T00:29:40;93051.34;;;13.11;83.85
15568;BME280;7885;42.596;23.044;2023-07-28T00:32:07;93081.97;;;13.29;82.88
15568;BME280;7885;42.596;23.044;2023-07-28T00:34:35;93083.50;;;13.34;84.27
15568;BME280;7885;42.596;23.044;2023-07-28T00:37:02;93082.41;;;13.24;85.49
15568;BME280;7885;42.596;23.044;2023-07-28T00:39:29;93084.13;;;13.07;86.22
15568;BME280;7885;42.596;23.044;2023-07-28T00:41:56;93088.88;;;13.00;85.15
15568;BME280;7885;42.596;23.044;2023-07-28T00:44:23;93066.44;;;12.82;84.14
15568;BME280;7885;42.596;23.044;2023-07-28T00:46:49;93083.94;;;12.88;86.02
15568;BME280;7885;42.596;23.044;2023-07-28T00:49:17;93082.03;;;12.81;85.14
15568;BME280;7885;42.596;23.044;2023-07-28T00:51:46;93089.94;;;12.72;84.29
15568;BME280;7885;42.596;23.044;2023-07-28T00:54:12;93069.41;;;12.53;88.73
15568;BME280;7885;42.596;23.044;2023-07-28T00:56:40;93087.63;;;12.67;89.01
15568;BME280;7885;42.596;23.044;2023-07-28T00:59:07;93090.69;;;12.73;84.92
15568;BME280;7885;42.596;23.044;2023-07-28T01:01:33;93090.34;;;12.67;83.75
15568;BME280;7885;42.596;23.044;2023-07-28T01:04:00;93091.16;;;12.64;84.45
15568;BME280;7885;42.596;23.044;2023-07-28T01:06:34;93089.97;;;12.69;84.62
15568;BME280;7885;42.596;23.044;2023-07-28T01:09:10;93094.69;;;12.64;84.23
15568;BME280;7885;42.596;23.044;2023-07-28T01:11:38;93084.53;;;12.65;84.65
15568;BME280;7885;42.596;23.044;2023-07-28T01:14:05;93073.69;;;12.54;85.49
15568;BME280;7885;42.596;23.044;2023-07-28T01:16:32;93086.97;;;12.52;86.35
15568;BME280;7885;42.596;23.044;2023-07-28T01:18:58;93057.50;;;12.33;84.03
15568;BME280;7885;42.596;23.044;2023-07-28T01:21:29;93073.75;;;12.47;85.32
15568;BME280;7885;42.596;23.044;2023-07-28T01:24:04;93079.97;;;12.51;84.66
15568;BME280;7885;42.596;23.044;2023-07-28T01:26:34;93041.53;;;12.28;85.98
15568;BME280;7885;42.596;23.044;2023-07-28T01:29:02;93087.06;;;12.38;88.13
15568;BME280;7885;42.596;23.044;2023-07-28T01:31:29;93083.22;;;12.32;90.79
15568;BME280;7885;42.596;23.044;2023-07-28T01:33:56;93078.56;;;12.29;90.69
15568;BME280;7885;42.596;23.044;2023-07-28T01:36:23;93076.22;;;12.28;90.36
15568;BME280;7885;42.596;23.044;2023-07-28T01:38:50;93069.22;;;12.27;89.44
15568;BME280;7885;42.596;23.044;2023-07-28T01:41:17;93066.88;;;12.29;89.44
15568;BME280;7885;42.596;23.044;2023-07-28T01:43:45;93057.63;;;12.15;89.00
15568;BME280;7885;42.596;23.044;2023-07-28T01:46:12;93074.28;;;12.28;89.02
15568;BME280;7885;42.596;23.044;2023-07-28T01:48:38;93057.53;;;12.26;86.85
15568;BME280;7885;42.596;23.044;2023-07-28T01:51:05;93076.16;;;12.38;86.62
15568;BME280;7885;42.596;23.044;2023-07-28T01:53:32;93066.47;;;12.34;85.82
15568;BME280;7885;42.596;23.044;2023-07-28T01:55:59;93075.41;;;12.34;86.27
15568;BME280;7885;42.596;23.044;2023-07-28T01:58:26;93071.50;;;12.35;88.95
15568;BME280;7885;42.596;23.044;2023-07-28T02:00:54;93085.56;;;12.34;87.86
15568;BME280;7885;42.596;23.044;2023-07-28T02:03:21;93057.53;;;12.26;89.03
15568;BME280;7885;42.596;23.044;2023-07-28T02:05:48;93074.97;;;12.39;86.35
15568;BME280;7885;42.596;23.044;2023-07-28T02:08:15;93069.22;;;12.30;87.71
15568;BME280;7885;42.596;23.044;2023-07-28T02:10:42;93069.91;;;12.38;89.99
15568;BME280;7885;42.596;23.044;2023-07-28T02:13:09;93078.13;;;12.34;87.86
15568;BME280;7885;42.596;23.044;2023-07-28T02:15:36;93061.88;;;12.20;89.00
15568;BME280;7885;42.596;23.044;2023-07-28T02:18:04;93080.16;;;12.23;86.83
15568;BME280;7885;42.596;23.044;2023-07-28T02:20:31;93054.59;;;11.99;86.29
15568;BME280;7885;42.596;23.044;2023-07-28T02:22:58;93078.28;;;12.13;85.69
15568;BME280;7885;42.596;23.044;2023-07-28T02:25:25;93071.69;;;12.07;87.19
15568;BME280;7885;42.596;23.044;2023-07-28T02:27:52;93085.72;;;12.09;89.75
15568;BME280;7885;42.596;23.044;2023-07-28T02:30:19;93073.72;;;11.96;92.03
15568;BME280;7885;42.596;23.044;2023-07-28T02:32:45;93070.25;;;11.92;93.00
15568;BME280;7885;42.596;23.044;2023-07-28T02:35:14;93091.19;;;12.05;89.61
15568;BME280;7885;42.596;23.044;2023-07-28T02:37:40;93084.19;;;12.01;90.46
15568;BME280;7885;42.596;23.044;2023-07-28T02:40:09;93074.47;;;11.96;91.47
15568;BME280;7885;42.596;23.044;2023-07-28T02:42:35;93088.84;;;12.04;88.24
15568;BME280;7885;42.596;23.044;2023-07-28T02:45:02;93078.75;;;11.97;86.46
15568;BME280;7885;42.596;23.044;2023-07-28T02:47:29;93083.47;;;11.93;88.17
15568;BME280;7885;42.596;23.044;2023-07-28T02:49:56;93081.97;;;11.85;89.63
15568;BME280;7885;42.596;23.044;2023-07-28T02:52:24;93061.03;;;11.57;89.67
15568;BME280;7885;42.596;23.044;2023-07-28T02:54:51;93085.13;;;11.73;89.69
15568;BME280;7885;42.596;23.044;2023-07-28T02:57:18;93074.25;;;11.62;89.99
15568;BME280;7885;42.596;23.044;2023-07-28T02:59:45;93096.03;;;11.66;88.10
15568;BME280;7885;42.596;23.044;2023-07-28T03:02:11;93086.72;;;11.63;87.91
15568;BME280;7885;42.596;23.044;2023-07-28T03:04:38;93078.19;;;11.58;88.00
15568;BME280;7885;42.596;23.044;2023-07-28T03:07:05;93092.94;;;11.71;87.49
15568;BME280;7885;42.596;23.044;2023-07-28T03:09:33;93088.25;;;11.68;90.48
15568;BME280;7885;42.596;23.044;2023-07-28T03:12:00;93067.34;;;11.44;89.80
15568;BME280;7885;42.596;23.044;2023-07-28T03:14:26;93092.97;;;11.57;90.10
15568;BME280;7885;42.596;23.044;2023-07-28T03:16:54;93088.31;;;11.50;90.87
15568;BME280;7885;42.596;23.044;2023-07-28T03:19:20;93090.66;;;11.48;90.42
15568;BME280;7885;42.596;23.044;2023-07-28T03:21:47;93083.28;;;11.45;89.86
15568;BME280;7885;42.596;23.044;2023-07-28T03:24:14;93075.50;;;11.47;89.21
15568;BME280;7885;42.596;23.044;2023-07-28T03:26:42;93096.06;;;11.62;88.56
15568;BME280;7885;42.596;23.044;2023-07-28T03:29:09;93116.69;;;11.67;88.16
15568;BME280;7885;42.596;23.044;2023-07-28T03:31:36;93110.06;;;11.72;88.31
15568;BME280;7885;42.596;23.044;2023-07-28T03:34:04;93117.44;;;11.78;87.69
15568;BME280;7885;42.596;23.044;2023-07-28T03:36:30;93108.50;;;11.78;87.06
15568;BME280;7885;42.596;23.044;2023-07-28T03:38:57;93100.31;;;11.78;87.52
15568;BME280;7885;42.596;23.044;2023-07-28T03:41:24;93102.69;;;11.72;90.28
15568;BME280;7885;42.596;23.044;2023-07-28T03:43:52;93104.59;;;11.79;91.62
15568;BME280;7885;42.596;23.044;2023-07-28T03:46:19;93114.72;;;11.82;91.99
15568;BME280;7885;42.596;23.044;2023-07-28T03:48:46;93104.97;;;11.81;92.11
15568;BME280;7885;42.596;23.044;2023-07-28T03:51:13;93085.91;;;11.74;92.73
15568;BME280;7885;42.596;23.044;2023-07-28T03:53:39;93120.81;;;12.00;92.99
15568;BME280;7885;42.596;23.044;2023-07-28T03:56:06;93120.78;;;12.07;93.39
15568;BME280;7885;42.596;23.044;2023-07-28T03:58:33;93120.75;;;12.14;93.43
15568;BME280;7885;42.596;23.044;2023-07-28T04:01:01;93117.19;;;12.24;92.83
15568;BME280;7885;42.596;23.044;2023-07-28T04:03:27;93124.50;;;12.34;92.22
15568;BME280;7885;42.596;23.044;2023-07-28T04:05:54;93113.19;;;12.39;92.16
15568;BME280;7885;42.596;23.044;2023-07-28T04:08:21;93111.63;;;12.38;92.26
15568;BME280;7885;42.596;23.044;2023-07-28T04:10:48;93108.53;;;12.36;92.25
15568;BME280;7885;42.596;23.044;2023-07-28T04:13:14;93115.06;;;12.49;92.14
15568;BME280;7885;42.596;23.044;2023-07-28T04:15:41;93115.78;;;12.60;92.20
15568;BME280;7885;42.596;23.044;2023-07-28T04:18:09;93082.25;;;12.56;92.25
15568;BME280;7885;42.596;23.044;2023-07-28T04:20:36;93093.47;;;12.65;92.02
15568;BME280;7885;42.596;23.044;2023-07-28T04:23:02;93119.78;;;12.93;91.01
15568;BME280;7885;42.596;23.044;2023-07-28T04:25:29;93122.38;;;13.07;91.25
15568;BME280;7885;42.596;23.044;2023-07-28T04:27:56;93116.47;;;13.16;91.45
15568;BME280;7885;42.596;23.044;2023-07-28T04:30:23;93134.34;;;13.24;91.40
15568;BME280;7885;42.596;23.044;2023-07-28T04:32:49;93125.25;;;13.34;90.75
15568;BME280;7885;42.596;23.044;2023-07-28T04:35:18;93132.22;;;13.42;90.61
15568;BME280;7885;42.596;23.044;2023-07-28T04:37:44;93103.47;;;13.31;90.72
15568;BME280;7885;42.596;23.044;2023-07-28T04:40:12;93130.88;;;13.57;90.02
15568;BME280;7885;42.596;23.044;2023-07-28T04:42:39;93125.34;;;13.64;89.37
15568;BME280;7885;42.596;23.044;2023-07-28T04:45:06;93127.19;;;13.75;89.43
15568;BME280;7885;42.596;23.044;2023-07-28T04:47:33;93120.06;;;13.81;89.68
15568;BME280;7885;42.596;23.044;2023-07-28T04:50:00;93105.22;;;13.82;89.00
15568;BME280;7885;42.596;23.044;2023-07-28T04:52:28;93136.13;;;14.09;88.65
15568;BME280;7885;42.596;23.044;2023-07-28T04:54:55;93129.75;;;14.19;87.58
15568;BME280;7885;42.596;23.044;2023-07-28T04:57:22;93128.81;;;14.29;87.63
15568;BME280;7885;42.596;23.044;2023-07-28T04:59:48;93097.25;;;14.21;86.77
15568;BME280;7885;42.596;23.044;2023-07-28T05:02:15;93104.84;;;14.40;86.37
15568;BME280;7885;42.596;23.044;2023-07-28T05:04:42;93108.19;;;14.51;85.30
15568;BME280;7885;42.596;23.044;2023-07-28T05:07:09;93133.72;;;14.72;84.55
15568;BME280;7885;42.596;23.044;2023-07-28T05:09:37;93123.44;;;14.76;83.11
15568;BME280;7885;42.596;23.044;2023-07-28T05:12:07;93119.59;;;14.73;82.91
15568;BME280;7885;42.596;23.044;2023-07-28T05:14:35;93127.63;;;14.84;83.53
15568;BME280;7885;42.596;23.044;2023-07-28T05:17:02;93128.66;;;14.93;83.48
15568;BME280;7885;42.596;23.044;2023-07-28T05:19:29;93126.94;;;15.03;83.47
15568;BME280;7885;42.596;23.044;2023-07-28T05:21:56;93117.88;;;15.06;81.66
15568;BME280;7885;42.596;23.044;2023-07-28T05:24:23;93107.44;;;14.97;81.61
15568;BME280;7885;42.596;23.044;2023-07-28T05:26:51;93094.97;;;14.93;81.18
15568;BME280;7885;42.596;23.044;2023-07-28T05:29:17;93110.63;;;14.96;81.29
15568;BME280;7885;42.596;23.044;2023-07-28T05:31:45;93117.84;;;15.09;81.00
15568;BME280;7885;42.596;23.044;2023-07-28T05:34:11;93122.75;;;15.18;82.78
15568;BME280;7885;42.596;23.044;2023-07-28T05:36:38;93125.81;;;15.24;81.32
15568;BME280;7885;42.596;23.044;2023-07-28T05:39:05;93116.25;;;15.32;81.60
15568;BME280;7885;42.596;23.044;2023-07-28T05:41:32;93112.84;;;15.24;80.70
15568;BME280;7885;42.596;23.044;2023-07-28T05:44:00;93111.97;;;15.31;80.18
15568;BME280;7885;42.596;23.044;2023-07-28T05:46:27;93111.06;;;15.37;80.29
15568;BME280;7885;42.596;23.044;2023-07-28T05:48:54;93110.94;;;15.44;81.17
15568;BME280;7885;42.596;23.044;2023-07-28T05:51:24;93097.94;;;15.48;80.82
15568;BME280;7885;42.596;23.044;2023-07-28T05:53:51;93085.78;;;15.49;79.88
15568;BME280;7885;42.596;23.044;2023-07-28T05:56:18;93089.81;;;15.64;80.35
15568;BME280;7885;42.596;23.044;2023-07-28T05:58:45;93102.03;;;15.80;79.12
15568;BME280;7885;42.596;23.044;2023-07-28T06:01:13;93093.41;;;15.81;79.27
15568;BME280;7885;42.596;23.044;2023-07-28T06:03:40;93097.13;;;15.91;79.60
15568;BME280;7885;42.596;23.044;2023-07-28T06:06:07;93095.78;;;15.99;77.93
15568;BME280;7885;42.596;23.044;2023-07-28T06:08:34;93079.16;;;16.06;78.00
15568;BME280;7885;42.596;23.044;2023-07-28T06:11:03;93080.91;;;16.16;77.13
15568;BME280;7885;42.596;23.044;2023-07-28T06:13:30;93067.34;;;16.09;77.66
15568;BME280;7885;42.596;23.044;2023-07-28T06:15:57;93086.75;;;16.34;77.27
15568;BME280;7885;42.596;23.044;2023-07-28T06:18:25;93060.31;;;16.24;78.13
15568;BME280;7885;42.596;23.044;2023-07-28T06:20:52;93090.78;;;16.65;78.37
15568;BME280;7885;42.596;23.044;2023-07-28T06:23:18;93075.06;;;16.66;76.05
15568;BME280;7885;42.596;23.044;2023-07-28T06:25:45;93087.63;;;16.83;75.30
15568;BME280;7885;42.596;23.044;2023-07-28T06:28:12;93078.34;;;16.93;76.38
15568;BME280;7885;42.596;23.044;2023-07-28T06:30:39;93078.16;;;17.00;74.79
15568;BME280;7885;42.596;23.044;2023-07-28T06:33:06;93091.22;;;17.12;75.18
15568;BME280;7885;42.596;23.044;2023-07-28T06:35:34;93060.06;;;17.03;73.95
15568;BME280;7885;42.596;23.044;2023-07-28T06:38:01;93070.75;;;17.13;72.45
15568;BME280;7885;42.596;23.044;2023-07-28T06:40:28;93079.78;;;17.30;73.80
15568;BME280;7885;42.596;23.044;2023-07-28T06:42:55;93059.38;;;17.28;73.64
15568;BME280;7885;42.596;23.044;2023-07-28T06:45:22;93047.66;;;17.27;74.69
15568;BME280;7885;42.596;23.044;2023-07-28T06:47:49;93074.22;;;17.62;73.38
15568;BME280;7885;42.596;23.044;2023-07-28T06:50:16;93073.78;;;17.64;73.22
15568;BME280;7885;42.596;23.044;2023-07-28T06:52:45;93085.53;;;17.81;74.24
15568;BME280;7885;42.596;23.044;2023-07-28T06:55:13;93079.81;;;17.88;72.92
15568;BME280;7885;42.596;23.044;2023-07-28T06:57:40;93081.91;;;17.96;72.28
15568;BME280;7885;42.596;23.044;2023-07-28T07:00:07;93087.69;;;18.02;70.99
15568;BME280;7885;42.596;23.044;2023-07-28T07:02:35;93080.53;;;18.17;70.74
15568;BME280;7885;42.596;23.044;2023-07-28T07:05:02;93070.19;;;18.21;70.58
15568;BME280;7885;42.596;23.044;2023-07-28T07:07:29;93086.09;;;18.42;70.63
15568;BME280;7885;42.596;23.044;2023-07-28T07:09:58;93074.75;;;18.53;72.52
15568;BME280;7885;42.596;23.044;2023-07-28T07:12:25;93078.72;;;18.77;70.85
15568;BME280;7885;42.596;23.044;2023-07-28T07:14:52;93084.56;;;18.92;69.93
15568;BME280;7885;42.596;23.044;2023-07-28T07:17:19;93080.81;;;18.98;67.91
15568;BME280;7885;42.596;23.044;2023-07-28T07:19:45;93090.63;;;19.12;68.45
15568;BME280;7885;42.596;23.044;2023-07-28T07:22:11;93070.63;;;19.08;66.79
15568;BME280;7885;42.596;23.044;2023-07-28T07:24:38;93077.25;;;19.23;67.15
15568;BME280;7885;42.596;23.044;2023-07-28T07:27:06;93048.41;;;19.24;66.37
15568;BME280;7885;42.596;23.044;2023-07-28T07:29:36;93088.09;;;19.64;64.86
15568;BME280;7885;42.596;23.044;2023-07-28T07:32:04;93093.22;;;19.75;63.40
15568;BME280;7885;42.596;23.044;2023-07-28T07:34:33;93092.84;;;19.86;60.55
15568;BME280;7885;42.596;23.044;2023-07-28T07:37:02;93082.06;;;19.79;59.15
15568;BME280;7885;42.596;23.044;2023-07-28T07:39:29;93089.50;;;19.91;59.80
15568;BME280;7885;42.596;23.044;2023-07-28T07:41:56;93084.56;;;20.07;57.11
15568;BME280;7885;42.596;23.044;2023-07-28T07:44:24;93087.66;;;20.31;57.23
15568;BME280;7885;42.596;23.044;2023-07-28T07:46:51;93081.84;;;20.38;55.25
15568;BME280;7885;42.596;23.044;2023-07-28T07:49:18;93095.75;;;20.47;52.90
15568;BME280;7885;42.596;23.044;2023-07-28T07:51:44;93094.56;;;20.57;49.33
15568;BME280;7885;42.596;23.044;2023-07-28T07:54:11;93089.19;;;20.54;49.91
15568;BME280;7885;42.596;23.044;2023-07-28T07:56:41;93085.66;;;20.62;49.18
15568;BME280;7885;42.596;23.044;2023-07-28T07:59:07;93091.88;;;20.76;48.85
15568;BME280;7885;42.596;23.044;2023-07-28T08:01:36;93094.09;;;20.90;48.46
15568;BME280;7885;42.596;23.044;2023-07-28T08:04:02;93082.88;;;20.93;48.94
15568;BME280;7885;42.596;23.044;2023-07-28T08:06:29;93090.16;;;21.09;47.69
15568;BME280;7885;42.596;23.044;2023-07-28T08:08:56;93088.38;;;21.15;49.34
15568;BME280;7885;42.596;23.044;2023-07-28T08:11:25;93070.22;;;21.14;46.57
15568;BME280;7885;42.596;23.044;2023-07-28T08:13:52;93086.25;;;21.28;47.98
15568;BME280;7885;42.596;23.044;2023-07-28T08:16:18;93081.03;;;21.48;46.04
15568;BME280;7885;42.596;23.044;2023-07-28T08:18:46;93072.59;;;21.43;44.01
15568;BME280;7885;42.596;23.044;2023-07-28T08:21:13;93087.97;;;21.62;43.94
15568;BME280;7885;42.596;23.044;2023-07-28T08:23:40;93079.84;;;21.67;45.14
15568;BME280;7885;42.596;23.044;2023-07-28T08:26:07;93039.50;;;21.48;44.52
15568;BME280;7885;42.596;23.044;2023-07-28T08:28:34;93077.38;;;21.88;44.87
15568;BME280;7885;42.596;23.044;2023-07-28T08:31:00;93076.47;;;22.00;43.93
15568;BME280;7885;42.596;23.044;2023-07-28T08:33:29;93054.63;;;22.02;45.83
15568;BME280;7885;42.596;23.044;2023-07-28T08:35:57;93060.56;;;22.28;45.31
15568;BME280;7885;42.596;23.044;2023-07-28T08:38:24;93073.97;;;22.38;45.12
15568;BME280;7885;42.596;23.044;2023-07-28T08:40:52;93070.88;;;22.45;45.75
15568;BME280;7885;42.596;23.044;2023-07-28T08:43:18;93056.41;;;22.32;46.72
15568;BME280;7885;42.596;23.044;2023-07-28T08:45:45;93074.97;;;22.59;45.63
15568;BME280;7885;42.596;23.044;2023-07-28T08:48:12;93066.81;;;22.64;46.57
15568;BME280;7885;42.596;23.044;2023-07-28T08:50:39;93060.47;;;22.82;44.60
15568;BME280;7885;42.596;23.044;2023-07-28T08:53:08;93040.16;;;23.00;46.07
15568;BME280;7885;42.596;23.044;2023-07-28T08:55:35;93046.94;;;23.32;46.71
15568;BME280;7885;42.596;23.044;2023-07-28T08:58:14;93063.22;;;23.72;44.41
15568;BME280;7885;42.596;23.044;2023-07-28T09:00:41;93069.88;;;23.89;46.01
15568;BME280;7885;42.596;23.044;2023-07-28T09:03:09;93057.50;;;23.90;40.93
15568;BME280;7885;42.596;23.044;2023-07-28T09:05:36;93052.31;;;23.83;41.54
15568;BME280;7885;42.596;23.044;2023-07-28T09:08:06;93052.56;;;23.70;41.62
15568;BME280;7885;42.596;23.044;2023-07-28T09:10:41;93049.97;;;23.67;42.03
15568;BME280;7885;42.596;23.044;2023-07-28T09:13:09;93044.22;;;23.70;43.17
15568;BME280;7885;42.596;23.044;2023-07-28T09:15:37;93041.88;;;23.78;40.53
15568;BME280;7885;42.596;23.044;2023-07-28T09:18:07;93018.22;;;23.82;40.61
15568;BME280;7885;42.596;23.044;2023-07-28T09:20:35;93008.34;;;23.96;40.67
15568;BME280;7885;42.596;23.044;2023-07-28T09:23:02;93029.41;;;24.26;41.35
15568;BME280;7885;42.596;23.044;2023-07-28T09:25:31;93020.00;;;24.53;40.61
15568;BME280;7885;42.596;23.044;2023-07-28T09:28:00;93010.69;;;24.85;42.25
15568;BME280;7885;42.596;23.044;2023-07-28T09:30:26;93006.78;;;25.12;42.50
15568;BME280;7885;42.596;23.044;2023-07-28T09:32:55;93006.94;;;25.43;40.52
15568;BME280;7885;42.596;23.044;2023-07-28T09:35:22;93015.94;;;25.73;40.86
15568;BME280;7885;42.596;23.044;2023-07-28T09:37:50;93002.16;;;25.84;39.80
15568;BME280;7885;42.596;23.044;2023-07-28T09:40:20;93005.47;;;26.08;39.20
15568;BME280;7885;42.596;23.044;2023-07-28T09:42:48;93009.44;;;26.22;37.41
15568;BME280;7885;42.596;23.044;2023-07-28T09:45:18;93008.88;;;26.44;38.11
15568;BME280;7885;42.596;23.044;2023-07-28T09:47:46;93010.50;;;26.56;36.05
15568;BME280;7885;42.596;23.044;2023-07-28T09:50:15;92991.03;;;26.36;35.10
15568;BME280;7885;42.596;23.044;2023-07-28T09:52:45;92999.31;;;26.50;37.78
15568;BME280;7885;42.596;23.044;2023-07-28T09:55:11;92993.13;;;26.72;37.10
15568;BME280;7885;42.596;23.044;2023-07-28T09:57:45;93002.94;;;26.88;36.06
15568;BME280;7885;42.596;23.044;2023-07-28T10:00:13;92997.34;;;26.88;34.05
15568;BME280;7885;42.596;23.044;2023-07-28T10:02:44;92996.22;;;26.80;34.09
15568;BME280;7885;42.596;23.044;2023-07-28T10:05:11;92997.97;;;26.72;34.28
15568;BME280;7885;42.596;23.044;2023-07-28T10:07:40;92997.75;;;26.81;33.82
15568;BME280;7885;42.596;23.044;2023-07-28T10:10:10;93003.94;;;26.85;33.75
15568;BME280;7885;42.596;23.044;2023-07-28T10:12:41;93002.25;;;26.73;34.83
15568;BME280;7885;42.596;23.044;2023-07-28T10:15:12;93001.50;;;26.72;35.31
15568;BME280;7885;42.596;23.044;2023-07-28T10:17:45;93001.13;;;26.85;36.00
15568;BME280;7885;42.596;23.044;2023-07-28T10:20:30;92990.41;;;27.15;36.33
15568;BME280;7885;42.596;23.044;2023-07-28T10:23:10;92985.69;;;27.32;37.35
15568;BME280;7885;42.596;23.044;2023-07-28T10:25:39;92978.47;;;27.56;35.75
15568;BME280;7885;42.596;23.044;2023-07-28T10:28:07;92985.94;;;27.82;35.74
15568;BME280;7885;42.596;23.044;2023-07-28T10:30:35;92976.06;;;27.92;36.42
15568;BME280;7885;42.596;23.044;2023-07-28T10:33:05;92981.88;;;27.83;34.81
15568;BME280;7885;42.596;23.044;2023-07-28T10:35:32;92967.88;;;27.83;36.89
15568;BME280;7885;42.596;23.044;2023-07-28T10:38:30;92987.09;;;28.12;35.98
15568;BME280;7885;42.596;23.044;2023-07-28T10:41:13;92984.53;;;28.14;34.47
15568;BME280;7885;42.596;23.044;2023-07-28T10:43:44;92980.13;;;27.91;33.70
15568;BME280;7885;42.596;23.044;2023-07-28T10:46:14;92975.00;;;27.78;34.19
15568;BME280;7885;42.596;23.044;2023-07-28T10:48:44;92980.91;;;27.97;35.95
15568;BME280;7885;42.596;23.044;2023-07-28T10:51:11;92967.50;;;28.12;36.38
15568;BME280;7885;42.596;23.044;2023-07-28T10:53:38;92970.34;;;28.45;35.61
15568;BME280;7885;42.596;23.044;2023-07-28T10:56:05;92954.31;;;28.63;34.73
15568;BME280;7885;42.596;23.044;2023-07-28T10:58:35;92963.22;;;28.83;33.82
15568;BME280;7885;42.596;23.044;2023-07-28T11:01:02;92959.91;;;28.63;32.87
15568;BME280;7885;42.596;23.044;2023-07-28T11:03:30;92966.53;;;28.59;33.23
15568;BME280;7885;42.596;23.044;2023-07-28T11:05:59;92945.19;;;28.68;34.90
15568;BME280;7885;42.596;23.044;2023-07-28T11:08:28;92952.03;;;28.89;34.57
15568;BME280;7885;42.596;23.044;2023-07-28T11:10:55;92936.00;;;28.84;32.95
15568;BME280;7885;42.596;23.044;2023-07-28T11:13:22;92953.06;;;28.69;31.93
15568;BME280;7885;42.596;23.044;2023-07-28T11:15:53;92946.66;;;28.46;34.16
15568;BME280;7885;42.596;23.044;2023-07-28T11:18:25;92937.50;;;28.29;33.56
15568;BME280;7885;42.596;23.044;2023-07-28T11:20:52;92930.88;;;28.49;34.81
15568;BME280;7885;42.596;23.044;2023-07-28T11:23:27;92945.19;;;28.79;34.46
15568;BME280;7885;42.596;23.044;2023-07-28T11:25:59;92943.34;;;29.09;34.42
15568;BME280;7885;42.596;23.044;2023-07-28T11:28:25;92940.53;;;29.20;32.27
15568;BME280;7885;42.596;23.044;2023-07-28T11:30:53;92938.25;;;29.07;32.30
15568;BME280;7885;42.596;23.044;2023-07-28T11:33:20;92918.41;;;28.72;32.46
15568;BME280;7885;42.596;23.044;2023-07-28T11:35:47;92932.69;;;28.74;32.16
15568;BME280;7885;42.596;23.044;2023-07-28T11:38:14;92920.72;;;28.79;32.57
15568;BME280;7885;42.596;23.044;2023-07-28T11:40:43;92926.03;;;29.05;34.12
15568;BME280;7885;42.596;23.044;2023-07-28T11:43:10;92918.56;;;29.24;32.15
15568;BME280;7885;42.596;23.044;2023-07-28T11:45:37;92910.69;;;29.17;33.04
15568;BME280;7885;42.596;23.044;2023-07-28T11:48:05;92929.78;;;29.35;33.34
15568;BME280;7885;42.596;23.044;2023-07-28T11:50:35;92925.38;;;29.56;33.22
15568;BME280;7885;42.596;23.044;2023-07-28T11:53:03;92903.69;;;29.63;33.07
15568;BME280;7885;42.596;23.044;2023-07-28T11:55:30;92912.78;;;29.80;31.54
15568;BME280;7885;42.596;23.044;2023-07-28T11:58:00;92921.50;;;29.71;31.93
15568;BME280;7885;42.596;23.044;2023-07-28T12:00:30;92924.53;;;29.73;32.36
15568;BME280;7885;42.596;23.044;2023-07-28T12:03:04;92921.19;;;29.80;32.42
15568;BME280;7885;42.596;23.044;2023-07-28T12:05:31;92898.78;;;29.69;30.75
15568;BME280;7885;42.596;23.044;2023-07-28T12:08:01;92907.91;;;29.86;31.44
15568;BME280;7885;42.596;23.044;2023-07-28T12:10:28;92899.16;;;30.00;30.99
15568;BME280;7885;42.596;23.044;2023-07-28T12:13:02;92909.06;;;30.07;30.80
15568;BME280;7885;42.596;23.044;2023-07-28T12:15:30;92895.53;;;30.11;30.99
15568;BME280;7885;42.596;23.044;2023-07-28T12:18:16;92892.00;;;30.05;30.54
15568;BME280;7885;42.596;23.044;2023-07-28T12:20:46;92889.75;;;29.98;31.41
15568;BME280;7885;42.596;23.044;2023-07-28T12:23:14;92884.69;;;29.91;30.69
15568;BME280;7885;42.596;23.044;2023-07-28T12:25:41;92885.19;;;29.95;31.05
15568;BME280;7885;42.596;23.044;2023-07-28T12:28:10;92870.88;;;29.93;30.23
15568;BME280;7885;42.596;23.044;2023-07-28T12:30:38;92879.25;;;30.04;30.59
15568;BME280;7885;42.596;23.044;2023-07-28T12:33:05;92884.84;;;30.10;31.64
15568;BME280;7885;42.596;23.044;2023-07-28T12:35:33;92873.78;;;30.17;31.80
15568;BME280;7885;42.596;23.044;2023-07-28T12:38:00;92876.50;;;30.28;31.33
15568;BME280;7885;42.596;23.044;2023-07-28T12:40:30;92871.09;;;30.36;31.36
15568;BME280;7885;42.596;23.044;2023-07-28T12:42:57;92884.00;;;30.20;30.21
15568;BME280;7885;42.596;23.044;2023-07-28T12:45:26;92878.84;;;29.89;30.75
15568;BME280;7885;42.596;23.044;2023-07-28T12:47:53;92872.53;;;29.72;31.65
15568;BME280;7885;42.596;23.044;2023-07-28T12:50:20;92873.31;;;29.67;31.92
15568;BME280;7885;42.596;23.044;2023-07-28T12:52:47;92868.06;;;29.46;31.32
15568;BME280;7885;42.596;23.044;2023-07-28T12:55:15;92858.16;;;29.40;32.15
15568;BME280;7885;42.596;23.044;2023-07-28T12:57:42;92861.53;;;29.74;31.80
15568;BME280;7885;42.596;23.044;2023-07-28T13:00:09;92840.34;;;29.84;31.49
15568;BME280;7885;42.596;23.044;2023-07-28T13:02:40;92846.75;;;30.14;32.47